Time;durP1;ratioP1;P1;durP2;ratioP2;P2;SDS_P1;SDS_P2;PMS_P1;PMS_P2;Temp;Humidity;BMP_temperature;BMP_pressure;BME280_temperature;BME280_humidity;BME280_pressure;Samples;Min_cycle;Max_cycle;Signal;HPM_P1;HPM_P2
2023/08/29 00:00:15;;;;;;;8.87;6.50;;;15.30;34.10;;;;;;5004937;28;20464;-68
2023/08/29 00:02:42;;;;;;;7.40;5.80;;;15.30;33.90;;;;;;5003106;28;20462;-67
2023/08/29 00:05:09;;;;;;;7.87;5.70;;;15.30;33.90;;;;;;5004894;28;20944;-67
2023/08/29 00:07:36;;;;;;;8.90;6.80;;;15.20;33.90;;;;;;5007969;28;20463;-67
2023/08/29 00:10:03;;;;;;;8.13;6.47;;;15.20;34.00;;;;;;5010213;28;20974;-67
2023/08/29 00:12:32;;;;;;;8.83;7.23;;;15.20;33.90;;;;;;5009518;28;20456;-67
2023/08/29 00:14:59;;;;;;;15.27;11.00;;;15.20;34.10;;;;;;5008536;28;20479;-67
2023/08/29 00:17:26;;;;;;;19.50;17.40;;;15.20;34.10;;;;;;5009690;28;20478;-67
2023/08/29 00:19:53;;;;;;;24.53;21.77;;;15.20;34.10;;;;;;5007160;28;20876;-67
2023/08/29 00:22:20;;;;;;;28.37;23.47;;;15.20;34.10;;;;;;5012594;28;20495;-67
2023/08/29 00:24:47;;;;;;;32.10;27.43;;;15.10;34.10;;;;;;5010110;28;20508;-67
2023/08/29 00:27:14;;;;;;;33.40;28.50;;;15.10;34.80;;;;;;5007864;28;20460;-67
2023/08/29 00:29:42;;;;;;;34.03;30.37;;;15.10;34.20;;;;;;5010263;28;21068;-67
2023/08/29 00:32:09;;;;;;;37.13;33.07;;;15.10;34.90;;;;;;5007282;28;20476;-67
2023/08/29 00:34:35;;;;;;;36.00;32.20;;;15.10;34.10;;;;;;5004412;28;20483;-68
2023/08/29 00:37:02;;;;;;;35.93;32.07;;;15.10;34.20;;;;;;5010128;28;20460;-67
2023/08/29 00:39:29;;;;;;;30.10;26.90;;;15.10;34.20;;;;;;5011802;28;20501;-67
2023/08/29 00:41:56;;;;;;;27.33;21.47;;;15.10;34.20;;;;;;5008376;28;20464;-67
2023/08/29 00:44:22;;;;;;;23.03;18.43;;;15.10;34.20;;;;;;5008805;28;20517;-67
2023/08/29 00:46:51;;;;;;;22.73;17.10;;;15.10;34.30;;;;;;5006888;28;20467;-67
2023/08/29 00:49:21;;;;;;;19.40;15.40;;;15.10;34.40;;;;;;5010713;28;21137;-67
2023/08/29 00:51:49;;;;;;;20.20;17.70;;;15.10;34.40;;;;;;5007448;28;20467;-67
2023/08/29 00:54:18;;;;;;;22.93;17.70;;;15.10;34.40;;;;;;5006457;28;20489;-67
2023/08/29 00:56:46;;;;;;;19.07;17.07;;;15.10;34.40;;;;;;5008536;28;20571;-67
2023/08/29 00:59:13;;;;;;;20.90;15.17;;;15.10;34.30;;;;;;5009240;28;20501;-68
2023/08/29 01:01:40;;;;;;;21.67;16.03;;;15.10;34.40;;;;;;5013228;28;21022;-67
2023/08/29 01:04:09;;;;;;;18.90;16.90;;;15.00;34.40;;;;;;5010908;28;21011;-67
2023/08/29 01:06:37;;;;;;;23.10;17.73;;;15.10;34.50;;;;;;5011357;28;20467;-67
2023/08/29 01:09:06;;;;;;;19.43;16.97;;;15.00;34.60;;;;;;5007266;28;20456;-67
2023/08/29 01:11:41;;;;;;;18.37;16.20;;;15.00;34.60;;;;;;5006384;28;20898;-67
2023/08/29 01:14:13;;;;;;;15.73;14.13;;;15.10;34.90;;;;;;5008752;28;20917;-67
2023/08/29 01:16:46;;;;;;;17.30;14.33;;;15.10;35.50;;;;;;5011420;28;20455;-67
2023/08/29 01:19:15;;;;;;;16.90;13.50;;;15.10;34.80;;;;;;5008261;28;20459;-67
2023/08/29 01:21:48;;;;;;;15.10;13.50;;;15.10;34.80;;;;;;5009894;28;20459;-68
2023/08/29 01:24:31;;;;;;;16.90;14.80;;;15.10;34.90;;;;;;5009841;28;20464;-68
2023/08/29 01:27:01;;;;;;;14.63;12.70;;;15.10;35.10;;;;;;5004005;28;20460;-67
2023/08/29 01:29:28;;;;;;;17.20;13.73;;;15.10;35.20;;;;;;5010536;28;20467;-67
2023/08/29 01:31:56;;;;;;;20.60;14.53;;;15.10;35.00;;;;;;5013950;28;20496;-67
2023/08/29 01:34:24;;;;;;;18.30;14.20;;;15.10;35.10;;;;;;5007801;28;20901;-67
2023/08/29 01:36:50;;;;;;;16.97;15.13;;;15.20;34.90;;;;;;5008665;28;20471;-67
2023/08/29 01:39:17;;;;;;;17.83;15.63;;;15.10;34.80;;;;;;5011254;28;20456;-68
2023/08/29 01:41:44;;;;;;;22.33;17.20;;;15.10;34.70;;;;;;5007151;28;20471;-67
2023/08/29 01:44:12;;;;;;;21.07;17.40;;;15.10;34.70;;;;;;5008580;28;20474;-67
2023/08/29 01:46:38;;;;;;;22.83;20.50;;;15.00;34.60;;;;;;5008292;28;20886;-67
2023/08/29 01:49:06;;;;;;;26.30;22.30;;;15.00;34.50;;;;;;5008495;28;20475;-67
2023/08/29 01:51:33;;;;;;;26.23;23.37;;;15.00;34.50;;;;;;5007594;28;20471;-67
2023/08/29 01:54:00;;;;;;;26.70;23.77;;;15.00;34.60;;;;;;5009469;28;20992;-68
2023/08/29 01:56:29;;;;;;;25.57;21.87;;;15.00;34.80;;;;;;5010364;28;20456;-67
2023/08/29 01:58:56;;;;;;;27.67;24.67;;;15.00;34.70;;;;;;5009386;28;20456;-67
2023/08/29 02:01:25;;;;;;;28.90;24.63;;;15.00;34.80;;;;;;5008327;28;21027;-67
2023/08/29 02:03:52;;;;;;;21.20;18.10;;;15.00;34.90;;;;;;5008540;28;20503;-67
2023/08/29 02:06:19;;;;;;;17.80;16.00;;;15.00;35.10;;;;;;5009215;28;20462;-67
2023/08/29 02:08:46;;;;;;;18.27;14.23;;;15.00;35.10;;;;;;5009223;28;20459;-67
2023/08/29 02:11:13;;;;;;;14.10;12.60;;;15.00;35.10;;;;;;5007337;28;20456;-68
2023/08/29 02:13:39;;;;;;;15.47;12.20;;;15.00;35.20;;;;;;5008125;28;20479;-68
2023/08/29 02:16:06;;;;;;;12.60;11.30;;;15.00;35.40;;;;;;5008882;28;20468;-67
2023/08/29 02:18:36;;;;;;;14.03;11.90;;;15.00;35.40;;;;;;5007414;28;20471;-67
2023/08/29 02:21:03;;;;;;;14.70;11.50;;;15.00;35.50;;;;;;5008988;28;20456;-67
2023/08/29 02:23:30;;;;;;;13.40;11.70;;;15.00;35.50;;;;;;5008648;28;20506;-67
2023/08/29 02:26:03;;;;;;;14.10;11.80;;;15.00;35.60;;;;;;5005483;28;20467;-67
2023/08/29 02:28:34;;;;;;;13.03;11.73;;;15.00;35.80;;;;;;5008017;28;20463;-67
2023/08/29 02:31:03;;;;;;;12.53;10.77;;;15.00;35.80;;;;;;5008519;28;20549;-67
2023/08/29 02:33:30;;;;;;;14.30;10.57;;;15.00;35.80;;;;;;5009946;28;21196;-67
2023/08/29 02:35:58;;;;;;;10.70;9.60;;;15.00;35.70;;;;;;5008526;28;20483;-67
2023/08/29 02:38:25;;;;;;;11.63;9.80;;;15.00;36.00;;;;;;5008515;28;20509;-67
2023/08/29 02:40:52;;;;;;;10.40;9.30;;;15.00;36.10;;;;;;5009868;28;20464;-67
2023/08/29 02:43:18;;;;;;;12.50;9.63;;;15.00;36.20;;;;;;5009934;28;20479;-67
2023/08/29 02:45:45;;;;;;;11.93;10.67;;;14.90;36.20;;;;;;5009462;28;20467;-67
2023/08/29 02:48:12;;;;;;;11.17;9.93;;;15.00;36.20;;;;;;5008271;28;21128;-67
2023/08/29 02:50:39;;;;;;;10.83;9.77;;;14.90;36.40;;;;;;5009736;28;20733;-67
2023/08/29 02:53:07;;;;;;;10.87;9.40;;;14.90;36.50;;;;;;5008778;28;21043;-67
2023/08/29 02:55:33;;;;;;;10.30;9.03;;;14.90;36.60;;;;;;5008761;28;20472;-67
2023/08/29 02:58:00;;;;;;;11.00;9.90;;;14.90;36.50;;;;;;5009408;28;20456;-67
2023/08/29 03:00:28;;;;;;;11.63;10.43;;;14.90;36.60;;;;;;5008243;28;20456;-68
2023/08/29 03:02:54;;;;;;;12.07;10.10;;;14.90;36.60;;;;;;5006206;28;20503;-67
2023/08/29 03:05:21;;;;;;;12.63;10.03;;;14.90;36.50;;;;;;5007023;28;20452;-67
2023/08/29 03:07:48;;;;;;;11.40;9.30;;;14.90;36.50;;;;;;5008430;28;20456;-67
2023/08/29 03:10:17;;;;;;;11.83;10.63;;;14.90;36.50;;;;;;5009700;28;20466;-67
2023/08/29 03:12:44;;;;;;;13.90;10.63;;;14.90;36.50;;;;;;5009678;28;20452;-67
2023/08/29 03:15:11;;;;;;;12.97;9.63;;;14.80;36.40;;;;;;5008780;28;20487;-67
2023/08/29 03:17:38;;;;;;;11.93;10.70;;;14.90;36.50;;;;;;5003293;28;20461;-67
2023/08/29 03:20:06;;;;;;;11.60;10.40;;;14.90;36.40;;;;;;5008568;28;20460;-67
2023/08/29 03:22:33;;;;;;;11.00;9.80;;;14.90;36.50;;;;;;5005979;28;20460;-67
2023/08/29 03:25:00;;;;;;;10.00;8.80;;;14.90;36.30;;;;;;5006748;28;20456;-67
2023/08/29 03:27:28;;;;;;;15.07;9.60;;;14.90;36.30;;;;;;5009225;28;20467;-67
2023/08/29 03:29:55;;;;;;;9.60;8.60;;;14.90;36.90;;;;;;5009004;28;20455;-67
2023/08/29 03:32:21;;;;;;;9.67;8.67;;;14.80;36.20;;;;;;5019767;23;20535;-64
2023/08/29 03:34:52;;;;;;;10.07;8.70;;;14.80;36.20;;;;;;5006156;28;20488;-64
2023/08/29 03:37:19;;;;;;;10.10;8.70;;;14.80;36.40;;;;;;5008578;28;20468;-65
2023/08/29 03:39:45;;;;;;;10.97;8.80;;;14.80;36.40;;;;;;5009101;28;20462;-65
2023/08/29 03:42:12;;;;;;;12.10;9.30;;;14.80;36.50;;;;;;5011306;28;20471;-64
2023/08/29 03:44:40;;;;;;;11.27;9.13;;;14.80;36.40;;;;;;5012220;28;21015;-64
2023/08/29 03:47:07;;;;;;;12.60;9.17;;;14.70;36.60;;;;;;5009019;28;20451;-64
2023/08/29 03:49:33;;;;;;;14.07;10.07;;;14.70;36.80;;;;;;5009277;28;20460;-64
2023/08/29 03:52:00;;;;;;;11.93;10.00;;;14.80;36.60;;;;;;5012042;28;20478;-64
2023/08/29 03:54:27;;;;;;;15.40;10.20;;;14.70;36.60;;;;;;5012797;28;20483;-64
2023/08/29 03:56:54;;;;;;;11.20;10.00;;;14.70;36.80;;;;;;5010864;28;20472;-64
2023/08/29 03:59:20;;;;;;;10.40;9.30;;;14.70;36.70;;;;;;5009389;28;20466;-64
2023/08/29 04:01:48;;;;;;;11.43;9.67;;;14.70;36.70;;;;;;5008425;28;20471;-64
2023/08/29 04:04:15;;;;;;;10.10;9.10;;;14.70;36.50;;;;;;5011922;28;20471;-64
2023/08/29 04:06:42;;;;;;;9.50;8.50;;;14.70;36.50;;;;;;5011469;28;20538;-64
2023/08/29 04:09:10;;;;;;;12.83;9.30;;;14.70;36.60;;;;;;5009783;28;20460;-64
2023/08/29 04:11:37;;;;;;;11.30;9.00;;;14.70;36.50;;;;;;5013093;28;20530;-64
2023/08/29 04:14:04;;;;;;;10.33;9.07;;;14.70;36.50;;;;;;5005696;28;20483;-65
2023/08/29 04:16:30;;;;;;;11.37;9.03;;;14.70;36.40;;;;;;5007823;28;20507;-65
2023/08/29 04:18:58;;;;;;;11.67;9.17;;;14.70;36.40;;;;;;5021736;28;20537;-66
2023/08/29 04:21:25;;;;;;;9.43;7.53;;;14.70;36.30;;;;;;5012499;28;20460;-66
2023/08/29 04:23:52;;;;;;;9.90;7.90;;;14.70;36.00;;;;;;5011422;28;21058;-65
2023/08/29 04:26:18;;;;;;;9.90;8.03;;;14.70;36.10;;;;;;5011631;28;20460;-65
2023/08/29 04:28:45;;;;;;;9.50;8.10;;;14.70;36.10;;;;;;5010038;28;20456;-65
2023/08/29 04:31:12;;;;;;;10.00;8.57;;;14.70;36.10;;;;;;5009672;28;20494;-65
2023/08/29 04:33:39;;;;;;;14.90;9.30;;;14.60;36.20;;;;;;5010946;28;20518;-65
2023/08/29 04:36:09;;;;;;;10.40;8.13;;;14.70;36.30;;;;;;5004826;28;20508;-66
2023/08/29 04:38:35;;;;;;;9.00;8.07;;;14.60;36.10;;;;;;5011087;28;20464;-65
2023/08/29 04:41:03;;;;;;;10.60;8.37;;;14.60;36.10;;;;;;5010251;28;20482;-65
2023/08/29 04:43:30;;;;;;;13.20;8.27;;;14.60;36.30;;;;;;5011336;28;20661;-65
2023/08/29 04:45:57;;;;;;;12.13;8.33;;;14.60;36.30;;;;;;5015667;28;20937;-65
2023/08/29 04:48:24;;;;;;;18.07;8.00;;;14.60;36.40;;;;;;5009859;28;20548;-66
2023/08/29 04:50:50;;;;;;;10.17;8.40;;;14.60;36.50;;;;;;5012741;28;20478;-65
2023/08/29 04:53:18;;;;;;;9.50;8.40;;;14.60;36.60;;;;;;5010100;28;20487;-66
2023/08/29 04:55:45;;;;;;;9.60;8.43;;;14.60;36.40;;;;;;5008765;28;20855;-65
2023/08/29 04:58:12;;;;;;;9.57;7.97;;;14.60;36.50;;;;;;5009017;28;20449;-65
2023/08/29 05:00:39;;;;;;;9.57;7.63;;;14.60;36.50;;;;;;5011716;28;20472;-65
2023/08/29 05:03:06;;;;;;;9.80;8.47;;;14.60;36.60;;;;;;5011503;28;20512;-66
2023/08/29 05:05:33;;;;;;;8.67;7.37;;;14.60;36.60;;;;;;5011868;28;20460;-66
2023/08/29 05:07:59;;;;;;;11.13;8.77;;;14.60;36.70;;;;;;5008196;28;20991;-65
2023/08/29 05:10:27;;;;;;;11.20;7.60;;;14.60;37.20;;;;;;5011506;28;20464;-65
2023/08/29 05:12:54;;;;;;;11.03;8.47;;;14.60;36.70;;;;;;5010619;28;20479;-66
2023/08/29 05:15:21;;;;;;;10.70;8.33;;;14.60;36.70;;;;;;5016104;28;20483;-66
2023/08/29 05:17:47;;;;;;;10.40;8.10;;;14.60;36.80;;;;;;5011106;28;20959;-66
2023/08/29 05:20:14;;;;;;;10.13;8.97;;;14.70;36.90;;;;;;5011104;28;20467;-66
2023/08/29 05:22:41;;;;;;;10.43;8.57;;;14.60;36.80;;;;;;5011132;28;20471;-66
2023/08/29 05:25:08;;;;;;;9.90;8.43;;;14.70;36.90;;;;;;5006701;28;20464;-66
2023/08/29 05:27:36;;;;;;;9.63;8.00;;;14.70;36.90;;;;;;5011646;28;20476;-66
2023/08/29 05:30:04;;;;;;;11.47;8.90;;;14.70;37.00;;;;;;5011405;28;20471;-66
2023/08/29 05:32:31;;;;;;;10.53;8.70;;;14.70;37.00;;;;;;5009694;28;20467;-66
2023/08/29 05:34:58;;;;;;;11.03;8.90;;;14.70;36.80;;;;;;4999089;23;20493;-65
2023/08/29 05:37:24;;;;;;;9.83;7.47;;;14.70;37.00;;;;;;4985480;28;20468;-64
2023/08/29 05:39:52;;;;;;;10.97;8.50;;;14.70;37.00;;;;;;4989177;28;20453;-65
2023/08/29 05:42:19;;;;;;;10.23;8.03;;;14.70;36.90;;;;;;4990078;28;20467;-65
2023/08/29 05:44:49;;;;;;;10.77;8.93;;;14.70;37.00;;;;;;4991286;28;20461;-65
2023/08/29 05:47:15;;;;;;;10.47;8.63;;;14.70;37.00;;;;;;4993291;28;20472;-65
2023/08/29 05:49:42;;;;;;;11.73;9.17;;;14.70;37.00;;;;;;4992209;28;20461;-65
2023/08/29 05:52:09;;;;;;;10.27;8.63;;;14.70;36.90;;;;;;4984274;28;20461;-66
2023/08/29 05:54:36;;;;;;;11.27;8.97;;;14.70;36.90;;;;;;4989531;28;20476;-65
2023/08/29 05:57:03;;;;;;;10.00;9.00;;;14.70;37.00;;;;;;4991886;28;20481;-65
2023/08/29 05:59:30;;;;;;;11.67;8.60;;;14.80;37.00;;;;;;4990347;28;20534;-65
2023/08/29 06:01:58;;;;;;;10.00;8.30;;;14.80;37.00;;;;;;4975197;28;20470;-65
2023/08/29 06:04:25;;;;;;;10.47;9.03;;;14.80;36.80;;;;;;4966320;28;21010;-65
2023/08/29 06:06:52;;;;;;;12.07;9.87;;;14.80;36.90;;;;;;4971187;28;20517;-65
2023/08/29 06:09:18;;;;;;;11.77;10.50;;;14.80;36.90;;;;;;4970390;28;21015;-65
2023/08/29 06:11:45;;;;;;;11.90;10.60;;;14.80;36.90;;;;;;4970792;28;20462;-65
2023/08/29 06:14:12;;;;;;;12.00;10.80;;;14.80;36.90;;;;;;4970748;28;20485;-66
2023/08/29 06:16:39;;;;;;;13.63;11.03;;;14.90;36.90;;;;;;4971044;28;20495;-65
2023/08/29 06:19:07;;;;;;;12.23;9.70;;;14.90;37.00;;;;;;4973421;28;20486;-65
2023/08/29 06:21:34;;;;;;;12.57;10.67;;;14.90;36.90;;;;;;4972690;28;20469;-64
2023/08/29 06:24:00;;;;;;;11.43;10.23;;;15.00;36.90;;;;;;4970370;28;20494;-64
2023/08/29 06:26:28;;;;;;;15.87;14.37;;;15.00;37.00;;;;;;4969494;28;20473;-65
2023/08/29 06:28:55;;;;;;;16.10;14.50;;;15.00;37.00;;;;;;4970495;28;20465;-65
2023/08/29 06:31:21;;;;;;;16.60;14.77;;;15.10;36.80;;;;;;4978433;28;20477;-65
2023/08/29 06:33:49;;;;;;;15.63;14.03;;;15.10;36.70;;;;;;4986432;28;21010;-65
2023/08/29 06:36:17;;;;;;;16.50;14.73;;;15.10;36.50;;;;;;4985741;28;20488;-65
2023/08/29 06:38:43;;;;;;;19.13;17.23;;;15.10;36.40;;;;;;4988773;28;20917;-65
2023/08/29 06:41:10;;;;;;;19.30;17.30;;;15.10;36.40;;;;;;4990238;28;20465;-65
2023/08/29 06:43:37;;;;;;;19.57;17.47;;;15.10;36.40;;;;;;4991575;28;20476;-65
2023/08/29 06:46:04;;;;;;;18.00;14.20;;;15.10;36.30;;;;;;4993742;28;20972;-65
2023/08/29 06:48:31;;;;;;;19.17;13.60;;;15.10;36.30;;;;;;4989723;28;20459;-65
2023/08/29 06:50:57;;;;;;;13.93;10.93;;;15.10;36.30;;;;;;4987953;28;20461;-65
2023/08/29 06:53:26;;;;;;;16.87;13.87;;;15.10;36.20;;;;;;4988740;28;20484;-65
2023/08/29 06:55:53;;;;;;;20.53;16.13;;;15.10;36.20;;;;;;4988912;28;20487;-65
2023/08/29 06:58:20;;;;;;;24.70;18.33;;;15.10;36.10;;;;;;4989448;28;20461;-65
2023/08/29 07:00:46;;;;;;;18.13;16.23;;;15.00;36.50;;;;;;4999297;28;20507;-65
2023/08/29 07:03:13;;;;;;;19.10;16.37;;;15.10;35.90;;;;;;5003327;28;20477;-65
2023/08/29 07:05:40;;;;;;;17.83;15.93;;;15.00;35.80;;;;;;4986654;28;20461;-65
2023/08/29 07:08:07;;;;;;;16.07;13.80;;;15.10;35.90;;;;;;4988396;28;21339;-65
2023/08/29 07:10:35;;;;;;;12.37;10.77;;;15.10;35.80;;;;;;4989801;28;20464;-65
2023/08/29 07:13:03;;;;;;;13.07;9.63;;;15.10;35.80;;;;;;4988495;28;20518;-65
2023/08/29 07:15:30;;;;;;;9.70;7.90;;;15.10;35.90;;;;;;4987575;28;20477;-65
2023/08/29 07:17:57;;;;;;;8.33;6.30;;;15.10;35.80;;;;;;4989100;28;20464;-66
2023/08/29 07:20:24;;;;;;;7.53;5.73;;;15.10;35.70;;;;;;4987292;28;20488;-65
2023/08/29 07:22:51;;;;;;;7.70;4.97;;;15.20;35.70;;;;;;4988609;28;20784;-65
2023/08/29 07:25:19;;;;;;;9.07;5.40;;;15.20;35.60;;;;;;4990998;28;20457;-65
2023/08/29 07:27:47;;;;;;;6.60;5.07;;;15.30;35.40;;;;;;4985118;28;20495;-65
2023/08/29 07:30:15;;;;;;;6.93;4.97;;;15.30;35.30;;;;;;4989340;28;20814;-65
2023/08/29 07:32:43;;;;;;;6.73;5.33;;;15.30;35.30;;;;;;4988826;28;20902;-65
2023/08/29 07:35:10;;;;;;;7.43;6.10;;;15.30;35.20;;;;;;4988403;28;20604;-66
2023/08/29 07:37:36;;;;;;;8.00;6.13;;;15.30;35.30;;;;;;4991916;28;20469;-65
2023/08/29 07:40:04;;;;;;;7.30;5.87;;;15.40;36.00;;;;;;4989188;28;20465;-65
2023/08/29 07:42:31;;;;;;;8.27;5.77;;;15.40;35.20;;;;;;4988502;28;20469;-65
2023/08/29 07:44:59;;;;;;;11.83;5.90;;;15.40;35.40;;;;;;4989744;28;20924;-65
2023/08/29 07:47:26;;;;;;;7.27;5.13;;;15.40;35.40;;;;;;4985661;28;20476;-65
2023/08/29 07:49:53;;;;;;;6.40;5.20;;;15.50;35.40;;;;;;4988855;28;20452;-65
2023/08/29 07:52:19;;;;;;;9.60;5.70;;;15.40;35.30;;;;;;4987792;28;20461;-65
2023/08/29 07:54:46;;;;;;;7.70;5.30;;;15.40;35.20;;;;;;4988879;28;21327;-66
2023/08/29 07:57:13;;;;;;;7.70;5.70;;;15.40;35.20;;;;;;4988567;28;20485;-65
2023/08/29 07:59:40;;;;;;;9.50;5.13;;;15.50;35.30;;;;;;4989095;28;20457;-65
2023/08/29 08:02:08;;;;;;;9.97;6.50;;;15.50;35.40;;;;;;4985457;28;20466;-65
2023/08/29 08:04:34;;;;;;;7.63;6.20;;;15.40;35.50;;;;;;4983917;28;20487;-66
2023/08/29 08:07:01;;;;;;;7.40;5.80;;;15.50;35.30;;;;;;4985983;28;20823;-65
2023/08/29 08:09:28;;;;;;;6.87;5.80;;;15.50;35.30;;;;;;4990883;28;21016;-65
2023/08/29 08:11:55;;;;;;;7.53;5.47;;;15.50;35.30;;;;;;4989761;28;20479;-65
2023/08/29 08:14:21;;;;;;;7.37;5.40;;;15.60;35.00;;;;;;4988446;28;20477;-65
2023/08/29 08:16:48;;;;;;;7.10;6.03;;;15.60;35.00;;;;;;4983627;28;20487;-65
2023/08/29 08:19:16;;;;;;;7.63;5.97;;;15.60;35.00;;;;;;4987515;28;20460;-65
2023/08/29 08:21:43;;;;;;;7.30;5.60;;;15.60;35.00;;;;;;4987707;28;21000;-65
2023/08/29 08:24:10;;;;;;;7.00;5.53;;;15.60;35.10;;;;;;4990316;28;20480;-65
2023/08/29 08:26:36;;;;;;;6.60;5.20;;;15.60;35.20;;;;;;4978950;28;20465;-65
2023/08/29 08:29:04;;;;;;;7.70;5.00;;;15.60;35.40;;;;;;4990863;28;20457;-65
2023/08/29 08:31:32;;;;;;;7.17;5.70;;;15.70;35.30;;;;;;4986877;28;20476;-65
2023/08/29 08:33:59;;;;;;;7.27;5.80;;;15.70;35.40;;;;;;4993519;28;20542;-65
2023/08/29 08:36:28;;;;;;;7.30;5.90;;;15.70;35.60;;;;;;4991936;28;20480;-66
2023/08/29 08:38:54;;;;;;;7.03;5.80;;;15.90;35.90;;;;;;4988983;28;20972;-66
2023/08/29 08:41:21;;;;;;;7.27;5.80;;;16.00;35.70;;;;;;4986468;28;20460;-64
2023/08/29 08:43:48;;;;;;;7.10;5.63;;;16.00;35.50;;;;;;4986152;28;20481;-64
2023/08/29 08:46:17;;;;;;;7.07;5.63;;;16.10;35.50;;;;;;4990248;28;20463;-64
2023/08/29 08:48:44;;;;;;;7.70;5.57;;;16.10;35.30;;;;;;4987232;28;20453;-65
2023/08/29 08:51:13;;;;;;;5.67;4.33;;;16.10;35.00;;;;;;4985660;28;20452;-64
2023/08/29 08:53:42;;;;;;;6.70;4.87;;;16.10;35.00;;;;;;4990953;28;20559;-65
2023/08/29 08:56:09;;;;;;;6.97;4.83;;;16.10;34.80;;;;;;4986108;28;20488;-65
2023/08/29 08:58:37;;;;;;;6.17;4.47;;;16.10;34.70;;;;;;4987583;28;20460;-65
2023/08/29 09:01:04;;;;;;;7.50;4.77;;;16.10;34.60;;;;;;4986827;28;20548;-65
2023/08/29 09:03:31;;;;;;;7.13;4.30;;;16.10;34.70;;;;;;4990749;28;20482;-65
2023/08/29 09:05:58;;;;;;;7.67;4.70;;;16.10;34.40;;;;;;4985671;28;20836;-65
2023/08/29 09:08:25;;;;;;;6.97;4.83;;;16.10;34.10;;;;;;4984045;28;20472;-65
2023/08/29 09:10:53;;;;;;;8.80;5.50;;;16.10;34.00;;;;;;4985900;28;22009;-65
2023/08/29 09:13:22;;;;;;;9.07;7.50;;;16.10;34.00;;;;;;4990063;28;20488;-65
2023/08/29 09:15:49;;;;;;;9.97;8.30;;;16.20;34.10;;;;;;4984375;28;20544;-64
2023/08/29 09:18:24;;;;;;;11.90;8.50;;;16.20;34.20;;;;;;4990961;28;20949;-64
2023/08/29 09:20:52;;;;;;;9.90;8.63;;;16.30;34.10;;;;;;4986179;28;20464;-65
2023/08/29 09:23:23;;;;;;;8.07;6.10;;;16.50;34.30;;;;;;4990770;28;20473;-64
2023/08/29 09:25:55;;;;;;;6.80;5.10;;;16.60;34.30;;;;;;4988047;28;20827;-65
2023/08/29 09:28:22;;;;;;;6.77;4.80;;;16.80;34.10;;;;;;4985074;28;20453;-65
2023/08/29 09:30:49;;;;;;;4.83;3.53;;;16.90;33.80;;;;;;4989091;28;20481;-65
2023/08/29 09:33:20;;;;;;;6.30;4.23;;;17.00;33.30;;;;;;4986628;28;20497;-65
2023/08/29 09:35:47;;;;;;;6.20;4.37;;;17.10;33.20;;;;;;4982353;28;20461;-65
2023/08/29 09:38:13;;;;;;;7.03;4.23;;;17.10;32.80;;;;;;4990128;28;20476;-65
2023/08/29 09:40:46;;;;;;;5.77;4.20;;;17.10;32.50;;;;;;4989433;28;20477;-65
2023/08/29 09:43:15;;;;;;;5.43;3.90;;;17.10;32.40;;;;;;4990784;28;20481;-65
2023/08/29 09:45:42;;;;;;;5.93;4.33;;;17.10;32.30;;;;;;4986113;28;20457;-66
2023/08/29 09:48:10;;;;;;;6.10;4.30;;;17.20;31.90;;;;;;4986393;28;20821;-66
2023/08/29 09:50:37;;;;;;;7.60;4.33;;;17.30;32.10;;;;;;4991212;28;20615;-67
2023/08/29 09:53:05;;;;;;;6.23;4.30;;;17.30;31.60;;;;;;4990721;28;20562;-65
2023/08/29 09:55:34;;;;;;;5.87;4.27;;;17.20;31.60;;;;;;4985479;28;20468;-65
2023/08/29 09:58:04;;;;;;;5.53;4.00;;;17.20;31.60;;;;;;4989495;28;21088;-66
2023/08/29 10:00:35;;;;;;;5.80;4.00;;;17.20;31.70;;;;;;4987636;28;20567;-65
2023/08/29 10:03:05;;;;;;;6.03;4.10;;;17.10;31.70;;;;;;4990932;28;20473;-65
2023/08/29 10:05:35;;;;;;;5.93;3.70;;;17.20;31.80;;;;;;4983471;28;20452;-65
2023/08/29 10:08:08;;;;;;;7.00;4.93;;;17.20;31.70;;;;;;4986247;28;20472;-65
2023/08/29 10:10:35;;;;;;;6.90;4.23;;;17.20;31.40;;;;;;4991306;28;20469;-65
2023/08/29 10:13:05;;;;;;;5.40;3.97;;;17.20;31.10;;;;;;4991192;28;20481;-64
2023/08/29 10:15:35;;;;;;;6.43;3.10;;;17.20;31.00;;;;;;4988359;28;20475;-65
2023/08/29 10:18:02;;;;;;;7.13;3.80;;;17.20;30.90;;;;;;4986275;28;20493;-65
2023/08/29 10:20:29;;;;;;;5.00;3.70;;;17.10;31.10;;;;;;4990186;28;20697;-65
2023/08/29 10:22:56;;;;;;;5.33;3.30;;;17.10;31.40;;;;;;4985071;28;20487;-65
2023/08/29 10:25:23;;;;;;;4.87;3.07;;;17.10;31.90;;;;;;4985675;28;20953;-65
2023/08/29 10:27:51;;;;;;;4.40;2.80;;;17.10;31.50;;;;;;4985091;28;20460;-65
2023/08/29 10:30:18;;;;;;;4.50;2.90;;;17.10;31.20;;;;;;4986600;28;20525;-65
2023/08/29 10:32:47;;;;;;;5.13;3.20;;;17.00;31.20;;;;;;4989239;28;20476;-65
2023/08/29 10:35:19;;;;;;;4.53;2.80;;;17.10;31.30;;;;;;4985982;28;20466;-65
2023/08/29 10:37:47;;;;;;;6.23;3.40;;;17.10;31.60;;;;;;4991036;28;20626;-65
2023/08/29 10:40:14;;;;;;;5.53;3.50;;;17.00;31.30;;;;;;4987111;28;20457;-65
2023/08/29 10:42:57;;;;;;;5.90;2.83;;;17.00;31.50;;;;;;4985251;28;21034;-64
2023/08/29 10:45:42;;;;;;;5.83;3.67;;;17.10;31.20;;;;;;4984284;28;20461;-64
2023/08/29 10:48:10;;;;;;;6.30;4.20;;;17.20;31.10;;;;;;4989869;28;20460;-65
2023/08/29 10:50:38;;;;;;;4.53;1.93;;;17.30;30.80;;;;;;4984245;28;20468;-65
2023/08/29 10:53:05;;;;;;;5.60;2.03;;;17.30;30.00;;;;;;4984214;28;20543;-65
2023/08/29 10:55:37;;;;;;;3.97;1.90;;;17.20;29.20;;;;;;4982657;28;20461;-65
2023/08/29 10:58:36;;;;;;;6.97;2.40;;;17.30;29.70;;;;;;4989203;28;20564;-65
2023/08/29 11:01:04;;;;;;;4.23;2.60;;;17.40;30.00;;;;;;4984600;28;21072;-65
2023/08/29 11:03:49;;;;;;;4.10;2.30;;;17.60;29.80;;;;;;4988613;28;20480;-65
2023/08/29 11:06:17;;;;;;;4.03;2.10;;;17.80;29.30;;;;;;4982434;28;20500;-66
2023/08/29 11:08:44;;;;;;;4.10;2.03;;;18.00;29.30;;;;;;4989118;28;20468;-65
2023/08/29 11:11:19;;;;;;;4.33;2.23;;;18.20;28.90;;;;;;4983969;28;20460;-65
2023/08/29 11:13:59;;;;;;;5.00;2.33;;;18.40;28.10;;;;;;4990537;28;20537;-65
2023/08/29 11:16:27;;;;;;;5.40;2.37;;;18.70;27.60;;;;;;4988063;28;20467;-64
2023/08/29 11:19:16;;;;;;;4.17;2.60;;;18.90;26.90;;;;;;4985021;28;20477;-65
2023/08/29 11:21:44;;;;;;;4.53;1.80;;;19.10;26.60;;;;;;4980567;28;20556;-65
2023/08/29 11:24:11;;;;;;;3.87;2.20;;;19.20;24.90;;;;;;4988339;28;20469;-65
2023/08/29 11:26:40;;;;;;;4.20;2.43;;;19.20;24.30;;;;;;4989239;28;20453;-66
2023/08/29 11:29:07;;;;;;;4.63;2.30;;;19.20;24.90;;;;;;4987384;28;20464;-66
2023/08/29 11:31:39;;;;;;;6.97;2.40;;;19.20;25.50;;;;;;4984174;28;20469;-66
2023/08/29 11:34:12;;;;;;;4.47;2.70;;;19.30;25.40;;;;;;4984824;28;20477;-65
2023/08/29 11:36:42;;;;;;;4.80;3.00;;;19.40;24.90;;;;;;4980636;28;20467;-66
2023/08/29 11:39:09;;;;;;;5.00;2.70;;;19.40;24.60;;;;;;4988962;28;20501;-65
2023/08/29 11:41:35;;;;;;;5.20;3.03;;;19.40;24.30;;;;;;4989496;28;20471;-65
2023/08/29 11:44:02;;;;;;;5.13;3.00;;;19.40;24.80;;;;;;4985758;28;21261;-65
2023/08/29 11:46:32;;;;;;;5.60;2.77;;;19.50;24.30;;;;;;4984183;28;20981;-66
2023/08/29 11:48:59;;;;;;;5.10;3.20;;;19.50;24.10;;;;;;4985371;28;20480;-66
2023/08/29 11:51:26;;;;;;;4.60;3.03;;;19.50;24.30;;;;;;4988538;28;20962;-66
2023/08/29 11:53:54;;;;;;;4.60;3.00;;;19.50;24.10;;;;;;4984202;28;20512;-65
2023/08/29 11:56:21;;;;;;;7.93;3.00;;;19.40;24.20;;;;;;4987058;28;20473;-65
2023/08/29 11:58:51;;;;;;;4.80;3.50;;;19.40;24.30;;;;;;4984057;28;21015;-65
2023/08/29 12:01:18;;;;;;;5.33;4.00;;;19.40;24.50;;;;;;4984850;28;20474;-66
2023/08/29 12:03:45;;;;;;;4.63;3.37;;;19.40;24.50;;;;;;4992499;28;20480;-64
2023/08/29 12:06:13;;;;;;;5.10;3.13;;;19.40;24.60;;;;;;4987248;28;20464;-65
2023/08/29 12:08:42;;;;;;;5.40;3.07;;;19.40;24.10;;;;;;4992581;28;20448;-65
2023/08/29 12:11:12;;;;;;;5.07;2.90;;;19.40;23.90;;;;;;4988377;28;20453;-65
2023/08/29 12:13:41;;;;;;;4.33;2.50;;;19.40;23.70;;;;;;4984201;28;20484;-66
2023/08/29 12:16:14;;;;;;;4.70;2.83;;;19.40;23.70;;;;;;4988902;28;20527;-65
2023/08/29 12:18:41;;;;;;;5.80;2.97;;;19.40;23.80;;;;;;4984555;28;20488;-65
2023/08/29 12:21:15;;;;;;;5.37;3.03;;;19.30;23.50;;;;;;4984299;28;20457;-65
2023/08/29 12:23:43;;;;;;;4.73;3.33;;;19.40;23.90;;;;;;4983816;28;20485;-66
2023/08/29 12:26:11;;;;;;;4.60;3.20;;;19.40;23.90;;;;;;4981380;28;20516;-65
2023/08/29 12:28:38;;;;;;;5.07;3.30;;;19.40;24.30;;;;;;4985754;28;20456;-66
2023/08/29 12:31:05;;;;;;;5.10;3.30;;;19.50;24.80;;;;;;4989874;28;20519;-65
2023/08/29 12:33:32;;;;;;;4.60;3.30;;;19.70;24.60;;;;;;4992522;28;20491;-66
2023/08/29 12:35:58;;;;;;;4.33;2.60;;;19.80;24.10;;;;;;4987588;28;20984;-66
2023/08/29 12:38:26;;;;;;;4.50;2.60;;;20.00;23.50;;;;;;4989852;28;20515;-64
2023/08/29 12:40:53;;;;;;;5.50;2.73;;;20.10;22.90;;;;;;4987273;28;20461;-65